地図

経路データ

SID SEASON NUMBER BASIN SUBBASIN NAME ISO_TIME NATURE LAT LON WMO_WIND WMO_PRES WMO_AGENCY TRACK_TYPE DIST2LAND LANDFALL IFLAG USA_AGENCY USA_ATCF_ID USA_LAT USA_LON USA_RECORD USA_STATUS USA_WIND USA_PRES USA_SSHS USA_R34_NE USA_R34_SE USA_R34_SW USA_R34_NW USA_R50_NE USA_R50_SE USA_R50_SW USA_R50_NW USA_R64_NE USA_R64_SE USA_R64_SW USA_R64_NW USA_POCI USA_ROCI USA_RMW USA_EYE TOKYO_LAT TOKYO_LON TOKYO_GRADE TOKYO_WIND TOKYO_PRES TOKYO_R50_DIR TOKYO_R50_LONG TOKYO_R50_SHORT TOKYO_R30_DIR TOKYO_R30_LONG TOKYO_R30_SHORT TOKYO_LAND CMA_LAT CMA_LON CMA_CAT CMA_WIND CMA_PRES HKO_LAT HKO_LON HKO_CAT HKO_WIND HKO_PRES NEWDELHI_LAT NEWDELHI_LON NEWDELHI_GRADE NEWDELHI_WIND NEWDELHI_PRES NEWDELHI_CI NEWDELHI_DP NEWDELHI_POCI REUNION_LAT REUNION_LON REUNION_TYPE REUNION_WIND REUNION_PRES REUNION_TNUM REUNION_CI REUNION_RMW REUNION_R34_NE REUNION_R34_SE REUNION_R34_SW REUNION_R34_NW REUNION_R50_NE REUNION_R50_SE REUNION_R50_SW REUNION_R50_NW REUNION_R64_NE REUNION_R64_SE REUNION_R64_SW REUNION_R64_NW BOM_LAT BOM_LON BOM_TYPE BOM_WIND BOM_PRES BOM_TNUM BOM_CI BOM_RMW BOM_R34_NE BOM_R34_SE BOM_R34_SW BOM_R34_NW BOM_R50_NE BOM_R50_SE BOM_R50_SW BOM_R50_NW BOM_R64_NE BOM_R64_SE BOM_R64_SW BOM_R64_NW BOM_ROCI BOM_POCI BOM_EYE BOM_POS_METHOD BOM_PRES_METHOD NADI_LAT NADI_LON NADI_CAT NADI_WIND NADI_PRES WELLINGTON_LAT WELLINGTON_LON WELLINGTON_WIND WELLINGTON_PRES DS824_LAT DS824_LON DS824_STAGE DS824_WIND DS824_PRES TD9636_LAT TD9636_LON TD9636_STAGE TD9636_WIND TD9636_PRES TD9635_LAT TD9635_LON TD9635_WIND TD9635_PRES TD9635_ROCI NEUMANN_LAT NEUMANN_LON NEUMANN_CLASS NEUMANN_WIND NEUMANN_PRES MLC_LAT MLC_LON MLC_CLASS MLC_WIND MLC_PRES USA_GUST BOM_GUST BOM_GUST_PER REUNION_GUST REUNION_GUST_PER USA_SEAHGT USA_SEARAD_NE USA_SEARAD_SE USA_SEARAD_SW USA_SEARAD_NW STORM_SPEED STORM_DIR
1907032S13064 1907 7 SI MM NOT_NAMED 1907-02-01 06:00:00 NR -13.1000 63.8000 reunion main 1017 986 _____O________ -1 -13.1000 63.8000 99 9.90000 5 228
1907032S13064 1907 7 SI MM NOT_NAMED 1907-02-01 09:00:00 NR -13.2839 63.5923 main 986 955 _____P________ -1 -13.2839 63.5923 99 6 228
1907032S13064 1907 7 SI MM NOT_NAMED 1907-02-01 12:00:00 NR -13.4704 63.3828 main 955 924 _____P________ -1 -13.4704 63.3828 99 6 227
1907032S13064 1907 7 SI MM NOT_NAMED 1907-02-01 15:00:00 NR -13.6624 63.1699 main 924 893 _____P________ -1 -13.6624 63.1699 99 6 227
1907032S13064 1907 7 SI MM NOT_NAMED 1907-02-01 18:00:00 NR -13.8625 62.9522 main 893 856 _____P________ -1 -13.8625 62.9522 99 6 226
1907032S13064 1907 7 SI MM NOT_NAMED 1907-02-01 21:00:00 NR -14.0735 62.7279 main 856 825 _____P________ -1 -14.0735 62.7279 99 6 225
1907032S13064 1907 7 SI MM NOT_NAMED 1907-02-02 00:00:00 NR -14.2983 62.4955 main 825 794 _____P________ -1 -14.2983 62.4955 99 7 225
1907032S13064 1907 7 SI MM NOT_NAMED 1907-02-02 03:00:00 NR -14.5395 62.2534 main 794 748 _____P________ -1 -14.5395 62.2534 99 7 224
1907032S13064 1907 7 SI MM NOT_NAMED 1907-02-02 06:00:00 NR -14.8000 62.0000 reunion main 748 701 _____O________ -1 -14.8000 62.0000 99 9.90000 7 223
1907032S13064 1907 7 SI MM NOT_NAMED 1907-02-02 09:00:00 NR -15.0817 61.7346 main 701 662 _____P________ -1 -15.0817 61.7346 99 8 222
1907032S13064 1907 7 SI MM NOT_NAMED 1907-02-02 12:00:00 NR -15.3834 61.4606 main 662 616 _____P________ -1 -15.3834 61.4606 99 8 221
1907032S13064 1907 7 SI MM NOT_NAMED 1907-02-02 15:00:00 NR -15.7029 61.1829 main 616 569 _____P________ -1 -15.7029 61.1829 99 8 219
1907032S13064 1907 7 SI MM NOT_NAMED 1907-02-02 18:00:00 NR -16.0384 60.9059 main 569 514 _____P________ -1 -16.0384 60.9059 99 9 218
1907032S13064 1907 7 SI MM NOT_NAMED 1907-02-02 21:00:00 NR -16.3878 60.6344 main 514 475 _____P________ -1 -16.3878 60.6344 99 9 216
1907032S13064 1907 7 SI MM NOT_NAMED 1907-02-03 00:00:00 NR -16.7491 60.3731 main 475 420 _____P________ -1 -16.7491 60.3731 99 9 214
1907032S13064 1907 7 SI MM NOT_NAMED 1907-02-03 03:00:00 NR -17.1205 60.1266 main 420 371 _____P________ -1 -17.1205 60.1266 99 9 211
1907032S13064 1907 7 SI MM NOT_NAMED 1907-02-03 06:00:00 NR -17.5000 59.9000 reunion main 371 332 _____O________ -1 -17.5000 59.9000 99 9.90000 9 210
1907032S13064 1907 7 SI MM NOT_NAMED 1907-02-03 09:00:00 NR -17.8613 59.6759 main 323 284 _____P________ -1 -17.8613 59.6759 99 8 209
1907032S13064 1907 7 SI MM NOT_NAMED 1907-02-03 12:00:00 NR -18.2314 59.4671 main 284 237 _____P________ -1 -18.2314 59.4671 99 8 207
1907032S13064 1907 7 SI MM NOT_NAMED 1907-02-03 15:00:00 NR -18.6113 59.2765 main 237 191 _____P________ -1 -18.6113 59.2765 99 8 204
1907032S13064 1907 7 SI MM NOT_NAMED 1907-02-03 18:00:00 NR -19.0023 59.1069 main 191 156 _____P________ -1 -19.0023 59.1069 99 9 201
1907032S13064 1907 7 SI MM NOT_NAMED 1907-02-03 21:00:00 NR -19.4056 58.9614 main 156 118 _____P________ -1 -19.4056 58.9614 99 9 197
1907032S13064 1907 7 SI MM NOT_NAMED 1907-02-04 00:00:00 NR -19.8221 58.8431 main 118 104 _____P________ -1 -19.8221 58.8431 99 9 193
1907032S13064 1907 7 SI MM NOT_NAMED 1907-02-04 03:00:00 NR -20.2532 58.7549 main 104 93 _____P________ -1 -20.2532 58.7549 99 9 189
1907032S13064 1907 7 SI MM NOT_NAMED 1907-02-04 06:00:00 NR -20.7000 58.7000 reunion main 103 103 _____O________ -1 -20.7000 58.7000 99 9.90000 9 187
1907032S13064 1907 7 SI MM NOT_NAMED 1907-02-04 09:00:00 NR -21.1621 58.6405 main 121 121 _____P________ -1 -21.1621 58.6405 99 10 185
1907032S13064 1907 7 SI MM NOT_NAMED 1907-02-04 12:00:00 NR -21.6412 58.6118 main 154 154 _____P________ -1 -21.6412 58.6118 99 10 182
1907032S13064 1907 7 SI MM NOT_NAMED 1907-02-04 15:00:00 NR -22.1342 58.6160 main 201 201 _____P________ -1 -22.1342 58.6160 99 10 177
1907032S13064 1907 7 SI MM NOT_NAMED 1907-02-04 18:00:00 NR -22.6380 58.6549 main 256 256 _____P________ -1 -22.6380 58.6549 99 10 174
1907032S13064 1907 7 SI MM NOT_NAMED 1907-02-04 21:00:00 NR -23.1495 58.7306 main 308 308 _____P________ -1 -23.1495 58.7306 99 10 170
1907032S13064 1907 7 SI MM NOT_NAMED 1907-02-05 00:00:00 NR -23.6658 58.8453 main 375 375 _____P________ -1 -23.6658 58.8453 99 11 167
1907032S13064 1907 7 SI MM NOT_NAMED 1907-02-05 03:00:00 NR -24.1836 59.0010 main 434 434 _____P________ -1 -24.1836 59.0010 99 11 163
1907032S13064 1907 7 SI MM NOT_NAMED 1907-02-05 06:00:00 NR -24.7000 59.2000 reunion main 494 494 _____O________ -1 -24.7000 59.2000 99 9.90000 12 159
1907032S13064 1907 7 SI MM NOT_NAMED 1907-02-05 09:00:00 NR -25.2645 59.4656 main 567 567 _____P________ -1 -25.2645 59.4656 99 13 155
1907032S13064 1907 7 SI MM NOT_NAMED 1907-02-05 12:00:00 NR -25.8368 59.7840 main 630 630 _____P________ -1 -25.8368 59.7840 99 13 152
1907032S13064 1907 7 SI MM NOT_NAMED 1907-02-05 15:00:00 NR -26.4036 60.1413 main 703 703 _____P________ -1 -26.4036 60.1413 99 13 149
1907032S13064 1907 7 SI MM NOT_NAMED 1907-02-05 18:00:00 NR -26.9519 60.5234 main 780 780 _____P________ -1 -26.9519 60.5234 99 13 147
1907032S13064 1907 7 SI MM NOT_NAMED 1907-02-05 21:00:00 NR -27.4685 60.9157 main 846 846 _____P________ -1 -27.4685 60.9157 99 12 145
1907032S13064 1907 7 SI MM NOT_NAMED 1907-02-06 00:00:00 NR -27.9406 61.3030 main 903 903 _____P________ -1 -27.9406 61.3030 99 11 143
1907032S13064 1907 7 SI MM NOT_NAMED 1907-02-06 03:00:00 NR -28.3552 61.6698 main 970 970 _____P________ -1 -28.3552 61.6698 99 10 141
1907032S13064 1907 7 SI MM NOT_NAMED 1907-02-06 06:00:00 NR -28.7000 62.0000 reunion main 1013 1013 _____O________ -1 -28.7000 62.0000 99 9.90000 8 139
1907032S13064 1907 7 SI MM NOT_NAMED 1907-02-06 09:00:00 NR -28.9663 62.2812 main 1056 1056 _____P________ -1 -28.9663 62.2812 99 6 136
1907032S13064 1907 7 SI MM NOT_NAMED 1907-02-06 12:00:00 NR -29.1608 62.5155 main 1085 1085 _____P________ -1 -29.1608 62.5155 99 5 131
1907032S13064 1907 7 SI MM NOT_NAMED 1907-02-06 15:00:00 NR -29.2940 62.7092 main 1104 1104 _____P________ -1 -29.2940 62.7092 99 4 125
1907032S13064 1907 7 SI MM NOT_NAMED 1907-02-06 18:00:00 NR -29.3762 62.8688 main 1123 1123 _____P________ -1 -29.3762 62.8688 99 3 116
1907032S13064 1907 7 SI MM NOT_NAMED 1907-02-06 21:00:00 NR -29.4178 63.0008 main 1128 1128 _____P________ -1 -29.4178 63.0008 99 2 104
1907032S13064 1907 7 SI MM NOT_NAMED 1907-02-07 00:00:00 NR -29.4288 63.1121 main 1133 1133 _____P________ -1 -29.4288 63.1121 99 2 91
1907032S13064 1907 7 SI MM NOT_NAMED 1907-02-07 03:00:00 NR -29.4195 63.2095 main 1137 1137 _____P________ -1 -29.4195 63.2095 99 2 80
1907032S13064 1907 7 SI MM NOT_NAMED 1907-02-07 06:00:00 NR -29.4000 63.3000 reunion main 1142 _____O________ -1 -29.4000 63.3000 99 9.90000 2 76

IBTrACS Databaseについて

本データベースは、米国NOAAが公開する1842年以降の世界の熱帯低気圧のベストトラックデータアーカイブInternational Best Track Archive for Climate Stewardship (IBTrACS)を、ウェブで閲覧しやすい形式に変換したものです。

最終更新日:2021-12-03